地図

経路データ

SID SEASON NUMBER BASIN SUBBASIN NAME ISO_TIME NATURE LAT LON WMO_WIND WMO_PRES WMO_AGENCY TRACK_TYPE DIST2LAND LANDFALL IFLAG USA_AGENCY USA_ATCF_ID USA_LAT USA_LON USA_RECORD USA_STATUS USA_WIND USA_PRES USA_SSHS USA_R34_NE USA_R34_SE USA_R34_SW USA_R34_NW USA_R50_NE USA_R50_SE USA_R50_SW USA_R50_NW USA_R64_NE USA_R64_SE USA_R64_SW USA_R64_NW USA_POCI USA_ROCI USA_RMW USA_EYE TOKYO_LAT TOKYO_LON TOKYO_GRADE TOKYO_WIND TOKYO_PRES TOKYO_R50_DIR TOKYO_R50_LONG TOKYO_R50_SHORT TOKYO_R30_DIR TOKYO_R30_LONG TOKYO_R30_SHORT TOKYO_LAND CMA_LAT CMA_LON CMA_CAT CMA_WIND CMA_PRES HKO_LAT HKO_LON HKO_CAT HKO_WIND HKO_PRES NEWDELHI_LAT NEWDELHI_LON NEWDELHI_GRADE NEWDELHI_WIND NEWDELHI_PRES NEWDELHI_CI NEWDELHI_DP NEWDELHI_POCI REUNION_LAT REUNION_LON REUNION_TYPE REUNION_WIND REUNION_PRES REUNION_TNUM REUNION_CI REUNION_RMW REUNION_R34_NE REUNION_R34_SE REUNION_R34_SW REUNION_R34_NW REUNION_R50_NE REUNION_R50_SE REUNION_R50_SW REUNION_R50_NW REUNION_R64_NE REUNION_R64_SE REUNION_R64_SW REUNION_R64_NW BOM_LAT BOM_LON BOM_TYPE BOM_WIND BOM_PRES BOM_TNUM BOM_CI BOM_RMW BOM_R34_NE BOM_R34_SE BOM_R34_SW BOM_R34_NW BOM_R50_NE BOM_R50_SE BOM_R50_SW BOM_R50_NW BOM_R64_NE BOM_R64_SE BOM_R64_SW BOM_R64_NW BOM_ROCI BOM_POCI BOM_EYE BOM_POS_METHOD BOM_PRES_METHOD NADI_LAT NADI_LON NADI_CAT NADI_WIND NADI_PRES WELLINGTON_LAT WELLINGTON_LON WELLINGTON_WIND WELLINGTON_PRES DS824_LAT DS824_LON DS824_STAGE DS824_WIND DS824_PRES TD9636_LAT TD9636_LON TD9636_STAGE TD9636_WIND TD9636_PRES TD9635_LAT TD9635_LON TD9635_WIND TD9635_PRES TD9635_ROCI NEUMANN_LAT NEUMANN_LON NEUMANN_CLASS NEUMANN_WIND NEUMANN_PRES MLC_LAT MLC_LON MLC_CLASS MLC_WIND MLC_PRES USA_GUST BOM_GUST BOM_GUST_PER REUNION_GUST REUNION_GUST_PER USA_SEAHGT USA_SEARAD_NE USA_SEARAD_SE USA_SEARAD_SW USA_SEARAD_NW STORM_SPEED STORM_DIR
1893284N18131 1893 55 WP MM NOT_NAMED 1893-10-10 16:00:00 NR 18.0000 130.800 main 823 818 __________O___ -1 18.0000 130.800 7 7 320
1893284N18131 1893 55 WP MM NOT_NAMED 1893-10-10 18:00:00 NR 18.1655 130.649 main 818 815 __________P___ -1 18.1655 130.649 7 7 320
1893284N18131 1893 55 WP MM NOT_NAMED 1893-10-10 21:00:00 NR 18.4265 130.417 main 815 812 __________P___ -1 18.4265 130.417 7 7 321
1893284N18131 1893 55 WP MM NOT_NAMED 1893-10-11 00:00:00 NR 18.7209 130.170 main 819 803 __________P___ -1 18.7209 130.170 7 8 323
1893284N18131 1893 55 WP MM NOT_NAMED 1893-10-11 03:00:00 NR 19.0687 129.898 main 804 793 __________P___ -1 19.0687 129.898 7 9 324
1893284N18131 1893 55 WP MM NOT_NAMED 1893-10-11 04:00:00 NR 19.2000 129.800 main 794 776 __________O___ -1 19.2000 129.800 7 10 326
1893284N18131 1893 55 WP MM NOT_NAMED 1893-10-11 06:00:00 NR 19.4878 129.594 main 777 754 __________P___ -1 19.4878 129.594 7 11 327
1893284N18131 1893 55 WP MM NOT_NAMED 1893-10-11 09:00:00 NR 19.9700 129.271 main 756 734 __________P___ -1 19.9700 129.271 7 12 329
1893284N18131 1893 55 WP MM NOT_NAMED 1893-10-11 12:00:00 NR 20.4903 128.957 main 740 726 __________P___ -1 20.4903 128.957 7 12 332
1893284N18131 1893 55 WP MM NOT_NAMED 1893-10-11 15:00:00 NR 21.0236 128.679 main 730 725 __________P___ -1 21.0236 128.679 7 12 335
1893284N18131 1893 55 WP MM NOT_NAMED 1893-10-11 16:00:00 NR 21.2000 128.600 main 729 724 __________O___ -1 21.2000 128.600 7 11 338
1893284N18131 1893 55 WP MM NOT_NAMED 1893-10-11 18:00:00 NR 21.5384 128.461 main 734 710 __________P___ -1 21.5384 128.461 7 11 342
1893284N18131 1893 55 WP MM NOT_NAMED 1893-10-11 21:00:00 NR 22.0462 128.296 main 710 679 __________P___ -1 22.0462 128.296 7 10 346
1893284N18131 1893 55 WP MM NOT_NAMED 1893-10-12 00:00:00 NR 22.5489 128.181 main 679 652 __________P___ -1 22.5489 128.181 7 10 350
1893284N18131 1893 55 WP MM NOT_NAMED 1893-10-12 03:00:00 NR 23.0400 128.113 main 652 646 __________P___ -1 23.0400 128.113 7 10 353
1893284N18131 1893 55 WP MM NOT_NAMED 1893-10-12 04:00:00 NR 23.2000 128.100 main 646 639 __________O___ -1 23.2000 128.100 3 10 355
1893284N18131 1893 55 WP MM NOT_NAMED 1893-10-12 06:00:00 NR 23.5113 128.067 main 639 626 __________P___ -1 23.5113 128.067 3 9 356
1893284N18131 1893 55 WP MM NOT_NAMED 1893-10-12 09:00:00 NR 23.9657 128.054 main 626 619 __________P___ -1 23.9657 128.054 3 9 1
1893284N18131 1893 55 WP MM NOT_NAMED 1893-10-12 12:00:00 NR 24.4107 128.087 main 619 615 __________P___ -1 24.4107 128.087 3 9 6
1893284N18131 1893 55 WP MM NOT_NAMED 1893-10-12 15:00:00 NR 24.8524 128.164 main 624 624 __________P___ -1 24.8524 128.164 3 9 10
1893284N18131 1893 55 WP MM NOT_NAMED 1893-10-12 16:00:00 NR 25.0000 128.200 main 624 624 __________O___ -1 25.0000 128.200 4 9 14
1893284N18131 1893 55 WP MM NOT_NAMED 1893-10-12 18:00:00 NR 25.2967 128.286 main 634 632 __________P___ -1 25.2967 128.286 4 9 17
1893284N18131 1893 55 WP MM NOT_NAMED 1893-10-12 21:00:00 NR 25.7452 128.444 main 632 573 __________P___ -1 25.7452 128.444 4 10 19
1893284N18131 1893 55 WP MM NOT_NAMED 1893-10-13 00:00:00 NR 26.1964 128.630 main 573 524 __________P___ -1 26.1964 128.630 4 10 21
1893284N18131 1893 55 WP MM NOT_NAMED 1893-10-13 03:00:00 NR 26.6491 128.831 main 524 500 __________P___ -1 26.6491 128.831 4 10 22
1893284N18131 1893 55 WP MM NOT_NAMED 1893-10-13 04:00:00 NR 26.8000 128.900 main 500 __________O___ -1 26.8000 128.900 4 10 22

デジタル台風データ・検索

IBTrACS Databaseについて

本データベースは、米国NOAAが公開する1842年以降の世界の熱帯低気圧のベストトラックデータアーカイブInternational Best Track Archive for Climate Stewardship (IBTrACS)を、ウェブで閲覧しやすい形式に変換したものです。

最終更新日:2021-10-19